sensor_id;sensor_type;location;lat;lon;timestamp;temperature;humidity
6377;DHT22;3221;48.858;10.128;2024-01-10T00:02:00;-5.20;99.90
6377;DHT22;3221;48.858;10.128;2024-01-10T00:04:27;-5.10;99.90
6377;DHT22;3221;48.858;10.128;2024-01-10T00:06:53;-5.10;99.90
6377;DHT22;3221;48.858;10.128;2024-01-10T00:09:20;-5.10;99.90
6377;DHT22;3221;48.858;10.128;2024-01-10T00:11:47;-5.10;99.90
6377;DHT22;3221;48.858;10.128;2024-01-10T00:14:14;-5.10;99.90
6377;DHT22;3221;48.858;10.128;2024-01-10T00:16:43;-5.20;99.90
6377;DHT22;3221;48.858;10.128;2024-01-10T00:19:10;-5.20;99.90
6377;DHT22;3221;48.858;10.128;2024-01-10T00:21:37;-5.10;99.90
6377;DHT22;3221;48.858;10.128;2024-01-10T00:24:04;-5.10;99.90
6377;DHT22;3221;48.858;10.128;2024-01-10T00:26:31;-5.20;99.90
6377;DHT22;3221;48.858;10.128;2024-01-10T00:28:58;-5.20;99.90
6377;DHT22;3221;48.858;10.128;2024-01-10T00:31:30;-5.30;99.90
6377;DHT22;3221;48.858;10.128;2024-01-10T00:33:58;-5.20;99.90
6377;DHT22;3221;48.858;10.128;2024-01-10T00:36:25;-5.20;99.90
6377;DHT22;3221;48.858;10.128;2024-01-10T00:38:52;-5.20;99.90
6377;DHT22;3221;48.858;10.128;2024-01-10T00:41:19;-5.50;99.90
6377;DHT22;3221;48.858;10.128;2024-01-10T00:43:46;-5.50;99.90
6377;DHT22;3221;48.858;10.128;2024-01-10T00:46:12;-5.40;99.90
6377;DHT22;3221;48.858;10.128;2024-01-10T00:48:39;-5.40;99.90
6377;DHT22;3221;48.858;10.128;2024-01-10T00:51:06;-5.40;99.90
6377;DHT22;3221;48.858;10.128;2024-01-10T00:53:35;-5.20;99.90
6377;DHT22;3221;48.858;10.128;2024-01-10T00:56:02;-5.20;99.90
6377;DHT22;3221;48.858;10.128;2024-01-10T00:58:29;-5.20;99.90
6377;DHT22;3221;48.858;10.128;2024-01-10T01:00:56;-5.30;99.90
6377;DHT22;3221;48.858;10.128;2024-01-10T01:03:23;-5.20;99.90
6377;DHT22;3221;48.858;10.128;2024-01-10T01:05:50;-5.10;99.90
6377;DHT22;3221;48.858;10.128;2024-01-10T01:08:17;-5.10;99.90
6377;DHT22;3221;48.858;10.128;2024-01-10T01:10:44;-5.10;99.90
6377;DHT22;3221;48.858;10.128;2024-01-10T01:13:11;-5.10;99.90
6377;DHT22;3221;48.858;10.128;2024-01-10T01:15:38;-5.20;99.90
6377;DHT22;3221;48.858;10.128;2024-01-10T01:18:05;-5.30;99.90
6377;DHT22;3221;48.858;10.128;2024-01-10T01:20:32;-5.40;99.90
6377;DHT22;3221;48.858;10.128;2024-01-10T01:22:59;-5.30;99.90
6377;DHT22;3221;48.858;10.128;2024-01-10T01:25:26;-5.30;99.90
6377;DHT22;3221;48.858;10.128;2024-01-10T01:27:53;-5.10;99.90
6377;DHT22;3221;48.858;10.128;2024-01-10T01:30:20;-5.00;99.90
6377;DHT22;3221;48.858;10.128;2024-01-10T01:32:48;-4.90;99.90
6377;DHT22;3221;48.858;10.128;2024-01-10T01:35:15;-5.00;99.90
6377;DHT22;3221;48.858;10.128;2024-01-10T01:37:48;-5.20;99.90
6377;DHT22;3221;48.858;10.128;2024-01-10T01:40:15;-5.20;99.90
6377;DHT22;3221;48.858;10.128;2024-01-10T01:42:47;-5.30;99.90
6377;DHT22;3221;48.858;10.128;2024-01-10T01:45:14;-5.30;99.90
6377;DHT22;3221;48.858;10.128;2024-01-10T01:47:41;-5.30;99.90
6377;DHT22;3221;48.858;10.128;2024-01-10T01:50:09;-5.40;99.90
6377;DHT22;3221;48.858;10.128;2024-01-10T01:52:37;-5.40;99.90
6377;DHT22;3221;48.858;10.128;2024-01-10T01:55:06;-5.30;99.90
6377;DHT22;3221;48.858;10.128;2024-01-10T01:57:34;-5.20;99.90
6377;DHT22;3221;48.858;10.128;2024-01-10T02:00:02;-5.30;99.90
6377;DHT22;3221;48.858;10.128;2024-01-10T02:02:30;-5.20;99.90
6377;DHT22;3221;48.858;10.128;2024-01-10T02:04:58;-5.40;99.90
6377;DHT22;3221;48.858;10.128;2024-01-10T02:07:26;-5.40;99.90
6377;DHT22;3221;48.858;10.128;2024-01-10T02:09:53;-5.40;99.90
6377;DHT22;3221;48.858;10.128;2024-01-10T02:12:20;-5.40;99.90
6377;DHT22;3221;48.858;10.128;2024-01-10T02:14:47;-5.40;99.90
6377;DHT22;3221;48.858;10.128;2024-01-10T02:17:14;-5.30;99.90
6377;DHT22;3221;48.858;10.128;2024-01-10T02:19:41;-5.30;99.90
6377;DHT22;3221;48.858;10.128;2024-01-10T02:22:08;-5.30;99.90
6377;DHT22;3221;48.858;10.128;2024-01-10T02:24:37;-5.30;99.90
6377;DHT22;3221;48.858;10.128;2024-01-10T02:27:04;-5.20;99.90
6377;DHT22;3221;48.858;10.128;2024-01-10T02:29:31;-5.30;99.90
6377;DHT22;3221;48.858;10.128;2024-01-10T02:31:58;-5.40;99.90
6377;DHT22;3221;48.858;10.128;2024-01-10T02:34:25;-5.30;99.90
6377;DHT22;3221;48.858;10.128;2024-01-10T02:36:52;-5.20;99.90
6377;DHT22;3221;48.858;10.128;2024-01-10T02:39:19;-5.00;99.90
6377;DHT22;3221;48.858;10.128;2024-01-10T02:41:46;-4.90;99.90
6377;DHT22;3221;48.858;10.128;2024-01-10T02:44:13;-5.10;99.90
6377;DHT22;3221;48.858;10.128;2024-01-10T02:46:41;-4.90;99.90
6377;DHT22;3221;48.858;10.128;2024-01-10T02:49:08;-5.00;99.90
6377;DHT22;3221;48.858;10.128;2024-01-10T02:51:35;-5.00;99.90
6377;DHT22;3221;48.858;10.128;2024-01-10T02:54:02;-5.00;99.90
6377;DHT22;3221;48.858;10.128;2024-01-10T02:56:29;-5.00;99.90
6377;DHT22;3221;48.858;10.128;2024-01-10T02:58:56;-5.10;99.90
6377;DHT22;3221;48.858;10.128;2024-01-10T03:01:23;-5.20;99.90
6377;DHT22;3221;48.858;10.128;2024-01-10T03:03:50;-5.20;99.90
6377;DHT22;3221;48.858;10.128;2024-01-10T03:06:17;-5.20;99.90
6377;DHT22;3221;48.858;10.128;2024-01-10T03:08:44;-5.30;99.90
6377;DHT22;3221;48.858;10.128;2024-01-10T03:11:11;-5.20;99.90
6377;DHT22;3221;48.858;10.128;2024-01-10T03:13:38;-5.10;99.90
6377;DHT22;3221;48.858;10.128;2024-01-10T03:16:06;-5.10;99.90
6377;DHT22;3221;48.858;10.128;2024-01-10T03:18:32;-5.10;99.90
6377;DHT22;3221;48.858;10.128;2024-01-10T03:20:59;-5.00;99.90
6377;DHT22;3221;48.858;10.128;2024-01-10T03:23:26;-5.10;99.90
6377;DHT22;3221;48.858;10.128;2024-01-10T03:25:56;-5.00;99.90
6377;DHT22;3221;48.858;10.128;2024-01-10T03:28:23;-5.10;99.90
6377;DHT22;3221;48.858;10.128;2024-01-10T03:30:50;-5.10;99.90
6377;DHT22;3221;48.858;10.128;2024-01-10T03:33:17;-5.20;99.90
6377;DHT22;3221;48.858;10.128;2024-01-10T03:35:45;-5.40;99.90
6377;DHT22;3221;48.858;10.128;2024-01-10T03:38:12;-5.40;99.90
6377;DHT22;3221;48.858;10.128;2024-01-10T03:40:42;-5.30;99.90
6377;DHT22;3221;48.858;10.128;2024-01-10T03:43:08;-5.40;99.90
6377;DHT22;3221;48.858;10.128;2024-01-10T03:45:37;-5.30;99.90
6377;DHT22;3221;48.858;10.128;2024-01-10T03:48:04;-5.40;99.90
6377;DHT22;3221;48.858;10.128;2024-01-10T03:50:31;-5.40;99.90
6377;DHT22;3221;48.858;10.128;2024-01-10T03:52:58;-5.40;99.90
6377;DHT22;3221;48.858;10.128;2024-01-10T03:55:25;-5.40;99.90
6377;DHT22;3221;48.858;10.128;2024-01-10T03:57:52;-5.20;99.90
6377;DHT22;3221;48.858;10.128;2024-01-10T04:00:19;-5.00;99.90
6377;DHT22;3221;48.858;10.128;2024-01-10T04:02:45;-5.40;99.90
6377;DHT22;3221;48.858;10.128;2024-01-10T04:05:14;-5.50;99.90
6377;DHT22;3221;48.858;10.128;2024-01-10T04:07:41;-5.30;99.90
6377;DHT22;3221;48.858;10.128;2024-01-10T04:10:13;-5.30;99.90
6377;DHT22;3221;48.858;10.128;2024-01-10T04:12:42;-5.30;99.90
6377;DHT22;3221;48.858;10.128;2024-01-10T04:15:09;-5.30;99.90
6377;DHT22;3221;48.858;10.128;2024-01-10T04:17:36;-5.50;99.90
6377;DHT22;3221;48.858;10.128;2024-01-10T04:20:04;-5.50;99.90
6377;DHT22;3221;48.858;10.128;2024-01-10T04:22:31;-5.40;99.90
6377;DHT22;3221;48.858;10.128;2024-01-10T04:24:59;-5.20;99.90
6377;DHT22;3221;48.858;10.128;2024-01-10T04:27:27;-5.20;99.90
6377;DHT22;3221;48.858;10.128;2024-01-10T04:29:54;-5.40;99.90
6377;DHT22;3221;48.858;10.128;2024-01-10T04:32:21;-5.30;99.90
6377;DHT22;3221;48.858;10.128;2024-01-10T04:34:48;-5.30;99.90
6377;DHT22;3221;48.858;10.128;2024-01-10T04:37:15;-5.40;99.90
6377;DHT22;3221;48.858;10.128;2024-01-10T04:39:42;-5.40;99.90
6377;DHT22;3221;48.858;10.128;2024-01-10T04:42:12;-5.30;99.90
6377;DHT22;3221;48.858;10.128;2024-01-10T04:44:39;-5.20;99.90
6377;DHT22;3221;48.858;10.128;2024-01-10T04:47:07;-5.10;99.90
6377;DHT22;3221;48.858;10.128;2024-01-10T04:49:34;-5.10;99.90
6377;DHT22;3221;48.858;10.128;2024-01-10T04:52:01;-5.00;99.90
6377;DHT22;3221;48.858;10.128;2024-01-10T04:54:29;-5.00;99.90
6377;DHT22;3221;48.858;10.128;2024-01-10T04:56:56;-5.10;99.90
6377;DHT22;3221;48.858;10.128;2024-01-10T04:59:22;-5.10;99.90
6377;DHT22;3221;48.858;10.128;2024-01-10T05:01:50;-5.30;99.90
6377;DHT22;3221;48.858;10.128;2024-01-10T05:04:17;-5.30;99.90
6377;DHT22;3221;48.858;10.128;2024-01-10T05:06:44;-5.40;99.90
6377;DHT22;3221;48.858;10.128;2024-01-10T05:09:12;-5.50;99.90
6377;DHT22;3221;48.858;10.128;2024-01-10T05:11:39;-5.40;99.90
6377;DHT22;3221;48.858;10.128;2024-01-10T05:14:08;-5.30;99.90
6377;DHT22;3221;48.858;10.128;2024-01-10T05:16:35;-5.30;99.90
6377;DHT22;3221;48.858;10.128;2024-01-10T05:19:02;-5.30;99.90
6377;DHT22;3221;48.858;10.128;2024-01-10T05:21:32;-5.40;99.90
6377;DHT22;3221;48.858;10.128;2024-01-10T05:24:00;-5.40;99.90
6377;DHT22;3221;48.858;10.128;2024-01-10T05:26:27;-5.30;99.90
6377;DHT22;3221;48.858;10.128;2024-01-10T05:28:54;-5.30;99.90
6377;DHT22;3221;48.858;10.128;2024-01-10T05:31:21;-5.30;99.90
6377;DHT22;3221;48.858;10.128;2024-01-10T05:33:47;-5.40;99.90
6377;DHT22;3221;48.858;10.128;2024-01-10T05:36:15;-5.50;99.90
6377;DHT22;3221;48.858;10.128;2024-01-10T05:38:41;-5.50;99.90
6377;DHT22;3221;48.858;10.128;2024-01-10T05:41:09;-5.50;99.90
6377;DHT22;3221;48.858;10.128;2024-01-10T05:43:36;-5.60;99.90
6377;DHT22;3221;48.858;10.128;2024-01-10T05:46:03;-5.60;99.90
6377;DHT22;3221;48.858;10.128;2024-01-10T05:48:32;-5.60;99.90
6377;DHT22;3221;48.858;10.128;2024-01-10T05:50:59;-5.60;99.90
6377;DHT22;3221;48.858;10.128;2024-01-10T05:53:28;-5.70;99.90
6377;DHT22;3221;48.858;10.128;2024-01-10T05:55:55;-5.70;99.90
6377;DHT22;3221;48.858;10.128;2024-01-10T05:58:22;-5.70;99.90
6377;DHT22;3221;48.858;10.128;2024-01-10T06:00:49;-5.60;99.90
6377;DHT22;3221;48.858;10.128;2024-01-10T06:03:16;-5.70;99.90
6377;DHT22;3221;48.858;10.128;2024-01-10T06:05:43;-5.70;99.90
6377;DHT22;3221;48.858;10.128;2024-01-10T06:08:10;-5.60;99.90
6377;DHT22;3221;48.858;10.128;2024-01-10T06:10:37;-5.60;99.90
6377;DHT22;3221;48.858;10.128;2024-01-10T06:13:04;-5.60;99.90
6377;DHT22;3221;48.858;10.128;2024-01-10T06:15:31;-5.50;99.90
6377;DHT22;3221;48.858;10.128;2024-01-10T06:17:58;-5.70;99.90
6377;DHT22;3221;48.858;10.128;2024-01-10T06:20:25;-5.70;99.90
6377;DHT22;3221;48.858;10.128;2024-01-10T06:22:52;-5.70;99.90
6377;DHT22;3221;48.858;10.128;2024-01-10T06:25:19;-5.70;99.90
6377;DHT22;3221;48.858;10.128;2024-01-10T06:27:46;-5.60;99.90
6377;DHT22;3221;48.858;10.128;2024-01-10T06:30:13;-5.50;99.90
6377;DHT22;3221;48.858;10.128;2024-01-10T06:32:40;-5.40;99.90
6377;DHT22;3221;48.858;10.128;2024-01-10T06:35:07;-5.40;99.90
6377;DHT22;3221;48.858;10.128;2024-01-10T06:37:37;-5.50;99.90
6377;DHT22;3221;48.858;10.128;2024-01-10T06:40:05;-5.50;99.90
6377;DHT22;3221;48.858;10.128;2024-01-10T06:42:32;-5.50;99.90
6377;DHT22;3221;48.858;10.128;2024-01-10T06:45:00;-5.40;99.90
6377;DHT22;3221;48.858;10.128;2024-01-10T06:47:27;-5.30;99.90
6377;DHT22;3221;48.858;10.128;2024-01-10T06:49:54;-5.40;99.90
6377;DHT22;3221;48.858;10.128;2024-01-10T06:52:21;-5.30;99.90
6377;DHT22;3221;48.858;10.128;2024-01-10T06:54:48;-5.30;99.90
6377;DHT22;3221;48.858;10.128;2024-01-10T06:57:15;-5.40;99.90
6377;DHT22;3221;48.858;10.128;2024-01-10T06:59:42;-5.30;99.90
6377;DHT22;3221;48.858;10.128;2024-01-10T07:02:09;-5.10;99.90
6377;DHT22;3221;48.858;10.128;2024-01-10T07:04:37;-5.10;99.90
6377;DHT22;3221;48.858;10.128;2024-01-10T07:07:04;-5.30;99.90
6377;DHT22;3221;48.858;10.128;2024-01-10T07:09:32;-5.40;99.90
6377;DHT22;3221;48.858;10.128;2024-01-10T07:11:59;-5.50;99.90
6377;DHT22;3221;48.858;10.128;2024-01-10T07:14:26;-5.50;99.90
6377;DHT22;3221;48.858;10.128;2024-01-10T07:16:53;-5.40;99.90
6377;DHT22;3221;48.858;10.128;2024-01-10T07:19:23;-5.30;99.90
6377;DHT22;3221;48.858;10.128;2024-01-10T07:21:51;-5.30;99.90
6377;DHT22;3221;48.858;10.128;2024-01-10T07:24:17;-5.20;99.90
6377;DHT22;3221;48.858;10.128;2024-01-10T07:26:44;-5.40;99.90
6377;DHT22;3221;48.858;10.128;2024-01-10T07:29:11;-5.30;99.90
6377;DHT22;3221;48.858;10.128;2024-01-10T07:31:38;-5.30;99.90
6377;DHT22;3221;48.858;10.128;2024-01-10T07:34:06;-5.10;99.90
6377;DHT22;3221;48.858;10.128;2024-01-10T07:36:33;-5.20;99.90
6377;DHT22;3221;48.858;10.128;2024-01-10T07:39:01;-5.20;99.90
6377;DHT22;3221;48.858;10.128;2024-01-10T07:41:30;-5.10;99.90
6377;DHT22;3221;48.858;10.128;2024-01-10T07:43:57;-5.10;99.90
6377;DHT22;3221;48.858;10.128;2024-01-10T07:46:24;-5.10;99.90
6377;DHT22;3221;48.858;10.128;2024-01-10T07:48:53;-5.20;99.90
6377;DHT22;3221;48.858;10.128;2024-01-10T07:51:20;-5.10;99.90
6377;DHT22;3221;48.858;10.128;2024-01-10T07:53:48;-5.10;99.90
6377;DHT22;3221;48.858;10.128;2024-01-10T07:56:15;-5.10;99.90
6377;DHT22;3221;48.858;10.128;2024-01-10T07:58:42;-4.90;99.90
6377;DHT22;3221;48.858;10.128;2024-01-10T08:01:09;-5.00;99.90
6377;DHT22;3221;48.858;10.128;2024-01-10T08:03:37;-5.20;99.90
6377;DHT22;3221;48.858;10.128;2024-01-10T08:06:04;-5.20;99.90
6377;DHT22;3221;48.858;10.128;2024-01-10T08:08:46;-5.20;99.90
6377;DHT22;3221;48.858;10.128;2024-01-10T08:11:13;-5.30;99.90
6377;DHT22;3221;48.858;10.128;2024-01-10T08:13:39;-5.30;99.90
6377;DHT22;3221;48.858;10.128;2024-01-10T08:16:07;-5.30;99.90
6377;DHT22;3221;48.858;10.128;2024-01-10T08:18:35;-5.40;99.90
6377;DHT22;3221;48.858;10.128;2024-01-10T08:21:02;-5.40;99.90
6377;DHT22;3221;48.858;10.128;2024-01-10T08:23:31;-5.40;99.90
6377;DHT22;3221;48.858;10.128;2024-01-10T08:25:58;-5.30;99.90
6377;DHT22;3221;48.858;10.128;2024-01-10T08:28:24;-5.30;99.90
6377;DHT22;3221;48.858;10.128;2024-01-10T08:30:53;-5.30;99.90
6377;DHT22;3221;48.858;10.128;2024-01-10T08:33:29;-5.30;99.90
6377;DHT22;3221;48.858;10.128;2024-01-10T08:35:57;-5.40;99.90
6377;DHT22;3221;48.858;10.128;2024-01-10T08:38:25;-5.30;99.90
6377;DHT22;3221;48.858;10.128;2024-01-10T08:40:52;-5.20;99.90
6377;DHT22;3221;48.858;10.128;2024-01-10T08:43:19;-5.10;99.90
6377;DHT22;3221;48.858;10.128;2024-01-10T08:45:46;-5.10;99.90
6377;DHT22;3221;48.858;10.128;2024-01-10T08:48:13;-5.10;99.90
6377;DHT22;3221;48.858;10.128;2024-01-10T08:50:40;-5.00;99.90
6377;DHT22;3221;48.858;10.128;2024-01-10T08:53:08;-4.90;99.90
6377;DHT22;3221;48.858;10.128;2024-01-10T08:55:35;-5.00;99.90
6377;DHT22;3221;48.858;10.128;2024-01-10T08:58:04;-4.90;99.90
6377;DHT22;3221;48.858;10.128;2024-01-10T09:00:31;-4.80;99.90
6377;DHT22;3221;48.858;10.128;2024-01-10T09:02:58;-4.80;99.90
6377;DHT22;3221;48.858;10.128;2024-01-10T09:05:25;-4.70;99.90
6377;DHT22;3221;48.858;10.128;2024-01-10T09:07:52;-4.70;99.90
6377;DHT22;3221;48.858;10.128;2024-01-10T09:10:20;-4.70;99.90
6377;DHT22;3221;48.858;10.128;2024-01-10T09:12:50;-4.70;99.90
6377;DHT22;3221;48.858;10.128;2024-01-10T09:15:17;-4.70;99.90
6377;DHT22;3221;48.858;10.128;2024-01-10T09:17:44;-4.50;99.90
6377;DHT22;3221;48.858;10.128;2024-01-10T09:20:12;-4.40;99.90
6377;DHT22;3221;48.858;10.128;2024-01-10T09:22:39;-4.30;99.90
6377;DHT22;3221;48.858;10.128;2024-01-10T09:25:06;-4.20;99.90
6377;DHT22;3221;48.858;10.128;2024-01-10T09:27:34;-4.20;99.90
6377;DHT22;3221;48.858;10.128;2024-01-10T09:30:02;-4.30;99.90
6377;DHT22;3221;48.858;10.128;2024-01-10T09:32:29;-4.30;99.90
6377;DHT22;3221;48.858;10.128;2024-01-10T09:34:56;-4.30;99.90
6377;DHT22;3221;48.858;10.128;2024-01-10T09:37:23;-4.20;99.90
6377;DHT22;3221;48.858;10.128;2024-01-10T09:39:50;-4.20;99.90
6377;DHT22;3221;48.858;10.128;2024-01-10T09:42:17;-3.90;99.90
6377;DHT22;3221;48.858;10.128;2024-01-10T09:44:45;-4.00;99.90
6377;DHT22;3221;48.858;10.128;2024-01-10T09:47:13;-3.80;99.90
6377;DHT22;3221;48.858;10.128;2024-01-10T09:49:41;-3.70;99.90
6377;DHT22;3221;48.858;10.128;2024-01-10T09:52:19;-3.80;99.90
6377;DHT22;3221;48.858;10.128;2024-01-10T09:54:54;-3.70;99.90
6377;DHT22;3221;48.858;10.128;2024-01-10T09:57:22;-3.60;99.90
6377;DHT22;3221;48.858;10.128;2024-01-10T09:59:51;-3.40;99.90
6377;DHT22;3221;48.858;10.128;2024-01-10T10:02:19;-3.30;99.90
6377;DHT22;3221;48.858;10.128;2024-01-10T10:07:27;-3.10;99.90
6377;DHT22;3221;48.858;10.128;2024-01-10T10:09:54;-3.00;99.90
6377;DHT22;3221;48.858;10.128;2024-01-10T10:12:44;-3.00;99.90
6377;DHT22;3221;48.858;10.128;2024-01-10T10:15:13;-3.00;99.90
6377;DHT22;3221;48.858;10.128;2024-01-10T10:17:42;-2.90;99.90
6377;DHT22;3221;48.858;10.128;2024-01-10T10:25:34;-2.80;99.90
6377;DHT22;3221;48.858;10.128;2024-01-10T10:28:03;-2.70;99.90
6377;DHT22;3221;48.858;10.128;2024-01-10T10:30:31;-2.70;99.90
6377;DHT22;3221;48.858;10.128;2024-01-10T10:32:58;-2.60;99.90
6377;DHT22;3221;48.858;10.128;2024-01-10T10:35:25;-2.50;99.90
6377;DHT22;3221;48.858;10.128;2024-01-10T10:38:07;-2.40;99.90
6377;DHT22;3221;48.858;10.128;2024-01-10T10:40:36;-2.40;99.90
6377;DHT22;3221;48.858;10.128;2024-01-10T10:43:04;-2.30;99.90
6377;DHT22;3221;48.858;10.128;2024-01-10T10:45:33;-2.20;99.90
6377;DHT22;3221;48.858;10.128;2024-01-10T10:48:01;-2.20;99.90
6377;DHT22;3221;48.858;10.128;2024-01-10T10:50:34;-2.20;99.90
6377;DHT22;3221;48.858;10.128;2024-01-10T10:53:03;-2.20;99.90
6377;DHT22;3221;48.858;10.128;2024-01-10T10:55:31;-2.30;99.90
6377;DHT22;3221;48.858;10.128;2024-01-10T10:58:01;-2.50;99.90
6377;DHT22;3221;48.858;10.128;2024-01-10T11:00:38;-2.60;99.90
6377;DHT22;3221;48.858;10.128;2024-01-10T11:03:09;-2.70;99.90
6377;DHT22;3221;48.858;10.128;2024-01-10T11:05:40;-2.80;99.90
6377;DHT22;3221;48.858;10.128;2024-01-10T11:08:10;-2.90;99.90
6377;DHT22;3221;48.858;10.128;2024-01-10T11:10:39;-2.80;99.90
6377;DHT22;3221;48.858;10.128;2024-01-10T11:13:53;-2.60;99.90
6377;DHT22;3221;48.858;10.128;2024-01-10T11:16:58;-2.30;99.90
6377;DHT22;3221;48.858;10.128;2024-01-10T11:25:00;-2.00;99.90
6377;DHT22;3221;48.858;10.128;2024-01-10T11:27:29;-2.10;99.90
6377;DHT22;3221;48.858;10.128;2024-01-10T11:29:56;-2.00;99.90
6377;DHT22;3221;48.858;10.128;2024-01-10T11:32:27;-2.00;99.90
6377;DHT22;3221;48.858;10.128;2024-01-10T11:37:21;-1.80;99.90
6377;DHT22;3221;48.858;10.128;2024-01-10T11:39:50;-1.90;99.90
6377;DHT22;3221;48.858;10.128;2024-01-10T11:42:24;-1.70;99.90
6377;DHT22;3221;48.858;10.128;2024-01-10T11:45:07;-1.70;99.90
6377;DHT22;3221;48.858;10.128;2024-01-10T11:47:38;-1.70;99.90
6377;DHT22;3221;48.858;10.128;2024-01-10T11:50:08;-1.60;99.90
6377;DHT22;3221;48.858;10.128;2024-01-10T11:52:36;-1.60;99.90
6377;DHT22;3221;48.858;10.128;2024-01-10T11:55:04;-1.70;99.90
6377;DHT22;3221;48.858;10.128;2024-01-10T11:57:33;-1.50;99.90
6377;DHT22;3221;48.858;10.128;2024-01-10T12:00:01;-1.60;99.90
6377;DHT22;3221;48.858;10.128;2024-01-10T12:02:32;-1.80;99.90
6377;DHT22;3221;48.858;10.128;2024-01-10T12:04:59;-1.90;99.90
6377;DHT22;3221;48.858;10.128;2024-01-10T12:07:26;-1.80;99.90
6377;DHT22;3221;48.858;10.128;2024-01-10T12:09:54;-1.80;99.90
6377;DHT22;3221;48.858;10.128;2024-01-10T12:12:21;-1.80;99.90
6377;DHT22;3221;48.858;10.128;2024-01-10T12:14:50;-1.80;99.90
6377;DHT22;3221;48.858;10.128;2024-01-10T12:17:18;-1.90;99.90
6377;DHT22;3221;48.858;10.128;2024-01-10T12:19:46;-1.90;99.90
6377;DHT22;3221;48.858;10.128;2024-01-10T12:22:16;-1.80;99.90
6377;DHT22;3221;48.858;10.128;2024-01-10T12:24:44;-1.60;99.90
6377;DHT22;3221;48.858;10.128;2024-01-10T12:27:17;-1.30;99.90
6377;DHT22;3221;48.858;10.128;2024-01-10T12:29:48;-1.20;99.90
6377;DHT22;3221;48.858;10.128;2024-01-10T12:32:18;-1.20;99.90
6377;DHT22;3221;48.858;10.128;2024-01-10T12:34:45;-1.00;99.90
6377;DHT22;3221;48.858;10.128;2024-01-10T12:37:12;-0.90;99.90
6377;DHT22;3221;48.858;10.128;2024-01-10T12:39:39;-0.90;99.90
6377;DHT22;3221;48.858;10.128;2024-01-10T12:42:06;-1.10;99.90
6377;DHT22;3221;48.858;10.128;2024-01-10T12:44:33;-0.80;99.90
6377;DHT22;3221;48.858;10.128;2024-01-10T12:47:01;-0.90;99.90
6377;DHT22;3221;48.858;10.128;2024-01-10T12:49:29;-1.00;99.90
6377;DHT22;3221;48.858;10.128;2024-01-10T12:51:56;-1.10;99.90
6377;DHT22;3221;48.858;10.128;2024-01-10T12:54:23;-1.20;99.90
6377;DHT22;3221;48.858;10.128;2024-01-10T12:56:50;-1.00;99.90
6377;DHT22;3221;48.858;10.128;2024-01-10T12:59:17;-0.80;99.90
6377;DHT22;3221;48.858;10.128;2024-01-10T13:01:44;-0.90;99.90
6377;DHT22;3221;48.858;10.128;2024-01-10T13:04:11;-1.10;99.90
6377;DHT22;3221;48.858;10.128;2024-01-10T13:06:39;-1.30;99.90
6377;DHT22;3221;48.858;10.128;2024-01-10T13:09:07;-1.10;99.90
6377;DHT22;3221;48.858;10.128;2024-01-10T13:11:34;-1.10;99.90
6377;DHT22;3221;48.858;10.128;2024-01-10T13:14:01;-1.20;99.90
6377;DHT22;3221;48.858;10.128;2024-01-10T13:16:28;-1.30;99.90
6377;DHT22;3221;48.858;10.128;2024-01-10T13:18:56;-1.40;99.90
6377;DHT22;3221;48.858;10.128;2024-01-10T13:21:24;-1.30;99.90
6377;DHT22;3221;48.858;10.128;2024-01-10T13:23:51;-1.20;99.90
6377;DHT22;3221;48.858;10.128;2024-01-10T13:26:18;-1.10;99.90
6377;DHT22;3221;48.858;10.128;2024-01-10T13:28:45;-0.90;99.90
6377;DHT22;3221;48.858;10.128;2024-01-10T13:31:12;-1.10;99.90
6377;DHT22;3221;48.858;10.128;2024-01-10T13:33:39;-1.10;99.90
6377;DHT22;3221;48.858;10.128;2024-01-10T13:36:13;-1.00;99.90
6377;DHT22;3221;48.858;10.128;2024-01-10T13:38:40;-1.00;99.90
6377;DHT22;3221;48.858;10.128;2024-01-10T13:41:07;-1.00;99.90
6377;DHT22;3221;48.858;10.128;2024-01-10T13:43:36;-1.00;99.90
6377;DHT22;3221;48.858;10.128;2024-01-10T13:46:03;-1.10;99.90
6377;DHT22;3221;48.858;10.128;2024-01-10T13:48:35;-0.80;99.90
6377;DHT22;3221;48.858;10.128;2024-01-10T13:51:04;-0.80;99.90
6377;DHT22;3221;48.858;10.128;2024-01-10T13:53:31;-0.80;99.90
6377;DHT22;3221;48.858;10.128;2024-01-10T13:55:58;-1.00;99.90
6377;DHT22;3221;48.858;10.128;2024-01-10T13:58:25;-1.10;99.90
6377;DHT22;3221;48.858;10.128;2024-01-10T14:00:52;-1.10;99.90
6377;DHT22;3221;48.858;10.128;2024-01-10T14:03:19;-0.90;99.90
6377;DHT22;3221;48.858;10.128;2024-01-10T14:05:46;-0.90;99.90
6377;DHT22;3221;48.858;10.128;2024-01-10T14:08:13;-0.80;99.90
6377;DHT22;3221;48.858;10.128;2024-01-10T14:10:40;-0.90;99.90
6377;DHT22;3221;48.858;10.128;2024-01-10T14:13:09;-1.00;99.90
6377;DHT22;3221;48.858;10.128;2024-01-10T14:15:36;-1.10;99.90
6377;DHT22;3221;48.858;10.128;2024-01-10T14:18:03;-1.20;99.90
6377;DHT22;3221;48.858;10.128;2024-01-10T14:20:30;-1.20;99.90
6377;DHT22;3221;48.858;10.128;2024-01-10T14:22:57;-1.20;99.90
6377;DHT22;3221;48.858;10.128;2024-01-10T14:25:24;-1.10;99.90
6377;DHT22;3221;48.858;10.128;2024-01-10T14:27:51;-1.00;99.90
6377;DHT22;3221;48.858;10.128;2024-01-10T14:30:19;-1.20;99.90
6377;DHT22;3221;48.858;10.128;2024-01-10T14:32:46;-1.30;99.90
6377;DHT22;3221;48.858;10.128;2024-01-10T14:35:14;-1.30;99.90
6377;DHT22;3221;48.858;10.128;2024-01-10T14:37:42;-1.30;99.90
6377;DHT22;3221;48.858;10.128;2024-01-10T14:40:10;-1.30;99.90
6377;DHT22;3221;48.858;10.128;2024-01-10T14:42:37;-1.30;99.90
6377;DHT22;3221;48.858;10.128;2024-01-10T14:45:04;-1.20;99.90
6377;DHT22;3221;48.858;10.128;2024-01-10T14:47:31;-1.30;99.90
6377;DHT22;3221;48.858;10.128;2024-01-10T14:49:58;-1.30;99.90
6377;DHT22;3221;48.858;10.128;2024-01-10T14:52:26;-1.30;99.90
6377;DHT22;3221;48.858;10.128;2024-01-10T14:54:53;-1.40;99.90
6377;DHT22;3221;48.858;10.128;2024-01-10T14:57:20;-1.30;99.90
6377;DHT22;3221;48.858;10.128;2024-01-10T14:59:48;-1.30;99.90
6377;DHT22;3221;48.858;10.128;2024-01-10T15:02:16;-1.20;99.90
6377;DHT22;3221;48.858;10.128;2024-01-10T15:04:45;-1.10;99.90
6377;DHT22;3221;48.858;10.128;2024-01-10T15:07:13;-1.00;99.90
6377;DHT22;3221;48.858;10.128;2024-01-10T15:09:43;-0.90;99.90
6377;DHT22;3221;48.858;10.128;2024-01-10T15:12:10;-0.70;99.90
6377;DHT22;3221;48.858;10.128;2024-01-10T15:14:37;-0.70;99.90
6377;DHT22;3221;48.858;10.128;2024-01-10T15:17:08;-0.60;99.90
6377;DHT22;3221;48.858;10.128;2024-01-10T15:19:37;-0.60;99.90
6377;DHT22;3221;48.858;10.128;2024-01-10T15:22:05;-0.70;99.90
6377;DHT22;3221;48.858;10.128;2024-01-10T15:24:32;-0.80;99.90
6377;DHT22;3221;48.858;10.128;2024-01-10T15:26:59;-0.90;99.90
6377;DHT22;3221;48.858;10.128;2024-01-10T15:29:37;-0.90;99.90
6377;DHT22;3221;48.858;10.128;2024-01-10T15:32:04;-1.00;99.90
6377;DHT22;3221;48.858;10.128;2024-01-10T15:34:32;-1.00;99.90
6377;DHT22;3221;48.858;10.128;2024-01-10T15:36:59;-1.00;99.90
6377;DHT22;3221;48.858;10.128;2024-01-10T15:39:26;-1.00;99.90
6377;DHT22;3221;48.858;10.128;2024-01-10T15:41:53;-1.10;99.90
6377;DHT22;3221;48.858;10.128;2024-01-10T15:44:20;-1.10;99.90
6377;DHT22;3221;48.858;10.128;2024-01-10T15:46:48;-1.10;99.90
6377;DHT22;3221;48.858;10.128;2024-01-10T15:49:16;-1.10;99.90
6377;DHT22;3221;48.858;10.128;2024-01-10T15:51:43;-1.20;99.90
6377;DHT22;3221;48.858;10.128;2024-01-10T15:54:10;-1.30;99.90
6377;DHT22;3221;48.858;10.128;2024-01-10T15:56:37;-1.40;99.90
6377;DHT22;3221;48.858;10.128;2024-01-10T15:59:06;-1.40;99.90
6377;DHT22;3221;48.858;10.128;2024-01-10T16:01:36;-1.30;99.90
6377;DHT22;3221;48.858;10.128;2024-01-10T16:04:04;-1.40;99.90
6377;DHT22;3221;48.858;10.128;2024-01-10T16:06:31;-1.40;99.90